Time;durP1;ratioP1;P1;durP2;ratioP2;P2;SDS_P1;SDS_P2;PMS_P1;PMS_P2;Temp;Humidity;BMP_temperature;BMP_pressure;BME280_temperature;BME280_humidity;BME280_pressure;Samples;Min_cycle;Max_cycle;Signal;HPM_P1;HPM_P2
2022/08/11 00:01:26;;;;;;;5.93;3.25;;;15.50;99.90;;;;;;5051394;28;20025;-81
2022/08/11 00:04:11;;;;;;;5.78;3.13;;;15.50;99.90;;;;;;5037623;28;20446;-81
2022/08/11 00:06:38;;;;;;;6.47;3.17;;;15.40;99.90;;;;;;5050345;28;20095;-81
2022/08/11 00:09:07;;;;;;;8.50;3.20;;;15.40;99.90;;;;;;5051109;28;20020;-81
2022/08/11 00:11:37;;;;;;;6.15;2.90;;;15.30;99.90;;;;;;5049198;28;20084;-81
2022/08/11 00:14:11;;;;;;;5.05;2.90;;;15.30;99.90;;;;;;5037733;28;20021;-81
2022/08/11 00:16:38;;;;;;;7.43;3.03;;;15.30;99.90;;;;;;5048640;28;20055;-81
2022/08/11 00:19:04;;;;;;;4.75;3.05;;;15.30;99.90;;;;;;5050909;28;20078;-81
2022/08/11 00:21:37;;;;;;;9.73;4.30;;;15.20;99.90;;;;;;5050756;28;20025;-81
2022/08/11 00:24:03;;;;;;;6.05;3.10;;;15.20;99.90;;;;;;5050803;28;20136;-81
2022/08/11 00:26:30;;;;;;;5.90;3.20;;;15.10;99.90;;;;;;5050618;28;20538;-81
2022/08/11 00:28:56;;;;;;;5.18;3.10;;;15.10;99.90;;;;;;5049443;28;20456;-81
2022/08/11 00:31:28;;;;;;;6.97;3.33;;;15.10;99.90;;;;;;5050900;28;20104;-81
2022/08/11 00:33:55;;;;;;;4.30;2.67;;;15.10;99.90;;;;;;5050852;28;20021;-81
2022/08/11 00:36:28;;;;;;;7.38;2.70;;;15.10;99.90;;;;;;5050584;28;20027;-81
2022/08/11 00:39:01;;;;;;;7.28;3.03;;;15.10;99.90;;;;;;5050683;28;20073;-81
2022/08/11 00:42:17;;;;;;;6.57;3.20;;;15.20;99.90;;;;;;5050650;28;20061;-81
2022/08/11 00:45:02;;;;;;;7.47;3.05;;;15.20;99.90;;;;;;5048975;28;20036;-81
2022/08/11 00:47:30;;;;;;;6.27;3.17;;;15.20;99.90;;;;;;5050472;28;20025;-81
2022/08/11 00:50:18;;;;;;;9.50;3.55;;;15.20;99.90;;;;;;5050424;28;20092;-81
2022/08/11 00:52:54;;;;;;;6.35;3.33;;;15.30;99.90;;;;;;5050815;28;20108;-81
2022/08/11 00:55:50;;;;;;;7.47;3.45;;;15.20;99.90;;;;;;5049956;28;20502;-81
2022/08/11 00:58:25;;;;;;;4.35;2.83;;;15.30;99.90;;;;;;5050494;28;20037;-81
2022/08/11 01:00:56;;;;;;;5.25;3.22;;;15.30;99.90;;;;;;5050345;28;20377;-81
2022/08/11 01:03:40;;;;;;;5.18;3.70;;;15.30;99.90;;;;;;5048909;28;20040;-81
2022/08/11 01:06:37;;;;;;;5.28;3.38;;;15.30;99.90;;;;;;5048954;28;20469;-81
2022/08/11 01:09:20;;;;;;;4.68;3.38;;;15.30;99.90;;;;;;5036588;28;20099;-81
2022/08/11 01:12:08;;;;;;;4.75;2.97;;;15.30;99.90;;;;;;5046565;28;20108;-81
2022/08/11 01:14:54;;;;;;;7.82;3.03;;;15.30;99.90;;;;;;5039652;28;20470;-81
2022/08/11 01:17:52;;;;;;;5.88;3.53;;;15.20;99.90;;;;;;5050355;28;20017;-81
2022/08/11 01:20:36;;;;;;;4.63;3.20;;;15.20;99.90;;;;;;5037018;28;20036;-81
2022/08/11 01:23:21;;;;;;;5.65;3.88;;;15.20;99.90;;;;;;5054248;28;20017;-82
2022/08/11 01:26:25;;;;;;;5.18;3.40;;;15.20;99.90;;;;;;5053529;28;20028;-81
2022/08/11 01:29:35;;;;;;;6.88;3.90;;;15.20;99.90;;;;;;5053787;28;20029;-81
2022/08/11 01:32:38;;;;;;;8.65;3.22;;;15.20;99.90;;;;;;5046819;28;20390;-82
2022/08/11 01:35:41;;;;;;;6.32;3.40;;;15.20;99.90;;;;;;5042897;28;20099;-81
2022/08/11 01:38:57;;;;;;;8.90;3.72;;;15.20;99.90;;;;;;5040146;28;20424;-81
2022/08/11 01:44:36;;;;;;;4.85;3.30;;;15.20;99.90;;;;;;5013416;28;20037;-81
2022/08/11 01:44:38;;;;;;;7.15;3.10;;;15.10;99.90;;;;;;5053117;28;20442;-81
2022/08/11 01:50:13;;;;;;;5.75;3.10;;;15.10;99.90;;;;;;5041142;28;20146;-81
2022/08/11 01:53:00;;;;;;;6.60;3.47;;;15.00;99.90;;;;;;5053627;28;20124;-81
2022/08/11 01:56:04;;;;;;;6.15;3.72;;;15.00;99.90;;;;;;5053317;28;20064;-81
2022/08/11 01:59:07;;;;;;;5.10;3.17;;;15.00;99.90;;;;;;5053314;28;20493;-81
2022/08/11 02:01:41;;;;;;;8.00;3.53;;;14.90;99.90;;;;;;5053373;28;20425;-81
2022/08/11 02:04:29;;;;;;;6.05;3.55;;;14.90;99.90;;;;;;5052900;28;20037;-81
2022/08/11 02:07:12;;;;;;;6.70;3.50;;;14.90;99.90;;;;;;5053224;28;20032;-81
2022/08/11 02:11:29;;;;;;;6.88;3.50;;;14.80;99.90;;;;;;5053179;28;20021;-81
2022/08/11 02:12:59;;;;;;;6.35;3.42;;;14.80;99.90;;;;;;5040830;28;20032;-81
2022/08/11 02:15:35;;;;;;;8.10;3.60;;;14.80;99.90;;;;;;5045684;28;20032;-81
2022/08/11 02:18:15;;;;;;;6.32;3.20;;;14.70;99.90;;;;;;5053057;28;20075;-81
2022/08/11 02:24:02;;;;;;;8.75;4.10;;;14.70;99.90;;;;;;5053090;28;20032;-82
2022/08/11 02:26:45;;;;;;;6.15;3.40;;;14.70;99.90;;;;;;5050559;28;20029;-81
2022/08/11 02:29:22;;;;;;;10.63;3.83;;;14.60;99.90;;;;;;5052532;28;20405;-81
2022/08/11 02:35:24;;;;;;;5.07;3.42;;;14.60;99.90;;;;;;5041478;28;20059;-81
2022/08/11 02:38:24;;;;;;;5.75;3.65;;;14.60;99.90;;;;;;5052964;28;20123;-81
2022/08/11 02:42:21;;;;;;;7.65;3.92;;;14.60;99.90;;;;;;5052586;28;20029;-81
2022/08/11 02:44:27;;;;;;;6.88;3.55;;;14.60;99.90;;;;;;5052695;28;20100;-81
2022/08/11 02:47:25;;;;;;;6.05;3.60;;;14.60;99.90;;;;;;5052699;28;20051;-81
2022/08/11 02:50:13;;;;;;;5.80;3.60;;;14.50;99.90;;;;;;5034666;28;20028;-81
2022/08/11 02:52:44;;;;;;;7.22;4.07;;;14.50;99.90;;;;;;5052411;28;20021;-81
2022/08/11 02:55:31;;;;;;;7.68;3.88;;;14.50;99.90;;;;;;5038682;28;20579;-81
2022/08/11 02:58:25;;;;;;;5.75;3.70;;;14.50;99.90;;;;;;5052356;28;20021;-81
2022/08/11 03:01:10;;;;;;;10.55;4.13;;;14.50;99.90;;;;;;5052690;28;20021;-81
2022/08/11 03:03:50;;;;;;;6.90;3.65;;;14.40;99.90;;;;;;5052164;28;20032;-81
2022/08/11 03:06:48;;;;;;;6.65;3.83;;;14.40;99.90;;;;;;5045912;28;20041;-81
2022/08/11 03:09:29;;;;;;;8.70;4.00;;;14.40;99.90;;;;;;5025117;28;20032;-81
2022/08/11 03:18:02;;;;;;;6.28;3.95;;;14.30;99.90;;;;;;5042187;28;20734;-81
2022/08/11 03:20:41;;;;;;;5.88;4.10;;;14.30;99.90;;;;;;5051951;28;20017;-81
2022/08/11 03:23:22;;;;;;;7.43;4.18;;;14.30;99.90;;;;;;5052200;28;20448;-81
2022/08/11 03:25:53;;;;;;;7.40;4.53;;;14.20;99.90;;;;;;5048392;28;20028;-81
2022/08/11 03:28:35;;;;;;;7.45;4.28;;;14.20;99.90;;;;;;5051919;28;20029;-81
2022/08/11 03:31:06;;;;;;;6.75;4.72;;;14.20;99.90;;;;;;5051659;28;20021;-81
2022/08/11 03:34:04;;;;;;;10.82;4.70;;;14.20;99.90;;;;;;5051775;28;20048;-81
2022/08/11 03:37:08;;;;;;;6.60;4.43;;;14.20;99.90;;;;;;5045389;28;20075;-81
2022/08/11 03:39:44;;;;;;;6.10;4.10;;;14.10;99.90;;;;;;5051569;28;20099;-81
2022/08/11 03:42:32;;;;;;;9.25;4.13;;;14.10;99.90;;;;;;5051122;28;20155;-81
2022/08/11 03:45:22;;;;;;;5.28;3.97;;;14.10;99.90;;;;;;5051667;28;20025;-81
2022/08/11 03:48:03;;;;;;;8.63;4.30;;;14.10;99.90;;;;;;5051725;28;20036;-81
2022/08/11 03:51:00;;;;;;;6.97;4.68;;;14.00;99.90;;;;;;5051345;28;20463;-81
2022/08/11 03:53:37;;;;;;;5.60;4.20;;;14.00;99.90;;;;;;5037775;28;20036;-81
2022/08/11 03:56:21;;;;;;;6.70;4.03;;;14.00;99.90;;;;;;5051006;28;20058;-81
2022/08/11 03:59:31;;;;;;;4.75;4.00;;;14.00;99.90;;;;;;5039823;28;20021;-81
2022/08/11 04:02:25;;;;;;;8.85;4.72;;;14.00;99.90;;;;;;5007357;28;20350;-81
2022/08/11 04:05:19;;;;;;;7.35;3.90;;;14.00;99.90;;;;;;5050957;28;20020;-81
2022/08/11 04:08:10;;;;;;;6.72;4.55;;;14.00;99.90;;;;;;5051303;28;20021;-81
2022/08/11 04:11:07;;;;;;;6.18;4.70;;;13.90;99.90;;;;;;5041136;28;20037;-81
2022/08/11 04:17:19;;;;;;;10.18;4.90;;;13.90;99.90;;;;;;5050575;28;20895;-82
2022/08/11 04:19:53;;;;;;;8.82;4.47;;;13.90;99.90;;;;;;5039838;28;20437;-79
2022/08/11 04:23:01;;;;;;;8.77;5.33;;;13.80;99.90;;;;;;5049819;28;20032;-79
2022/08/11 04:25:49;;;;;;;7.28;4.68;;;13.80;99.90;;;;;;5050211;28;20275;-79
2022/08/11 04:28:23;;;;;;;7.32;4.93;;;13.90;99.90;;;;;;5048818;28;20040;-78
2022/08/11 04:31:11;;;;;;;9.82;4.85;;;13.90;99.90;;;;;;5050313;28;20040;-79
2022/08/11 04:33:52;;;;;;;8.55;5.25;;;13.80;99.90;;;;;;5050735;28;20502;-71
2022/08/11 04:37:30;;;;;;;9.90;4.90;;;13.80;99.90;;;;;;5053885;28;20035;-70
2022/08/11 04:39:49;;;;;;;11.27;4.78;;;13.80;99.90;;;;;;5053410;28;20040;-71
2022/08/11 04:45:49;;;;;;;8.43;5.20;;;13.80;99.90;;;;;;5045715;28;20121;-71
2022/08/11 05:01:40;;;;;;;6.20;4.70;;;13.90;99.90;;;;;;5040747;28;20036;-75
2022/08/11 05:07:48;;;;;;;5.63;4.80;;;14.00;99.90;;;;;;5047015;28;20123;-75
2022/08/11 05:10:43;;;;;;;12.25;4.90;;;14.20;99.90;;;;;;5045151;28;20025;-75
2022/08/11 05:36:34;;;;;;;12.77;4.85;;;15.10;99.90;;;;;;5051373;28;20032;-71
2022/08/11 05:58:42;;;;;;;7.63;4.20;;;15.80;99.90;;;;;;5052824;28;20036;-71
2022/08/11 06:01:09;;;;;;;5.05;4.13;;;15.90;99.90;;;;;;5052586;28;20040;-71
2022/08/11 06:04:12;;;;;;;8.82;4.60;;;16.00;99.90;;;;;;5052239;28;20051;-71
2022/08/11 06:06:22;;;;;;;12.73;4.80;;;16.10;99.90;;;;;;5044357;28;20480;-72
2022/08/11 06:08:48;;;;;;;6.85;3.88;;;16.20;99.90;;;;;;5056150;28;20071;-75
2022/08/11 06:11:16;;;;;;;11.73;4.47;;;16.30;99.90;;;;;;5038938;28;20017;-75
2022/08/11 06:13:46;;;;;;;7.68;4.22;;;16.40;99.90;;;;;;5056111;28;20526;-75
2022/08/11 06:16:14;;;;;;;12.18;4.38;;;16.50;99.90;;;;;;5055923;28;20032;-75
2022/08/11 06:18:46;;;;;;;6.88;4.53;;;16.70;99.90;;;;;;5056498;28;20082;-75
2022/08/11 06:21:12;;;;;;;7.65;4.30;;;16.80;99.90;;;;;;5053688;28;20028;-79
2022/08/11 06:23:39;;;;;;;6.07;4.00;;;16.90;99.90;;;;;;5054005;28;20033;-71
2022/08/11 06:26:12;;;;;;;7.18;4.15;;;17.00;99.90;;;;;;5055949;28;20029;-72
2022/08/11 06:28:43;;;;;;;8.65;4.22;;;17.10;99.90;;;;;;5055612;28;20055;-71
2022/08/11 06:31:17;;;;;;;7.82;3.72;;;17.20;99.90;;;;;;5055862;28;20335;-71
2022/08/11 06:34:00;;;;;;;7.38;4.65;;;17.30;99.90;;;;;;5055794;28;20079;-71
2022/08/11 06:36:50;;;;;;;10.68;3.97;;;17.40;99.90;;;;;;5055834;28;20116;-71
2022/08/11 06:39:22;;;;;;;9.30;3.80;;;17.50;99.90;;;;;;5055434;28;20465;-75
2022/08/11 06:41:52;;;;;;;10.15;3.92;;;17.50;99.90;;;;;;5055731;28;20091;-75
2022/08/11 06:44:38;;;;;;;6.32;3.42;;;17.60;99.90;;;;;;5055652;28;20100;-74
2022/08/11 06:47:09;;;;;;;6.38;3.50;;;17.70;99.90;;;;;;5055265;28;20377;-75
2022/08/11 06:52:33;;;;;;;13.48;3.67;;;17.80;99.90;;;;;;5055604;28;20032;-71
2022/08/11 06:55:05;;;;;;;7.95;3.97;;;17.90;99.90;;;;;;5054557;28;20029;-71
2022/08/11 07:00:36;;;;;;;8.23;3.92;;;18.00;99.90;;;;;;5050973;28;20031;-75
2022/08/11 07:03:08;;;;;;;5.53;3.60;;;18.10;99.90;;;;;;5048910;28;20555;-75
2022/08/11 07:05:43;;;;;;;5.93;3.72;;;18.10;99.90;;;;;;5050138;28;20140;-75
2022/08/11 07:17:22;;;;;;;8.73;3.53;;;18.40;99.90;;;;;;5045406;28;20043;-75
2022/08/11 07:31:13;;;;;;;11.23;4.25;;;18.80;99.90;;;;;;5053985;28;20032;-78
2022/08/11 07:33:51;;;;;;;4.55;3.25;;;18.80;99.90;;;;;;5054022;28;20025;-71
2022/08/11 07:36:19;;;;;;;8.63;3.90;;;18.90;99.90;;;;;;5053184;28;20151;-71
2022/08/11 07:38:51;;;;;;;6.65;3.50;;;18.90;99.90;;;;;;5053688;28;20047;-71
2022/08/11 07:41:20;;;;;;;8.45;4.78;;;19.00;99.90;;;;;;5048689;28;20032;-79
2022/08/11 07:43:54;;;;;;;13.15;3.67;;;19.10;99.90;;;;;;5027458;28;20426;-79
2022/08/11 07:54:38;;;;;;;10.07;3.53;;;19.50;99.90;;;;;;5045583;28;20035;-79
2022/08/11 08:19:13;;;;;;;7.47;3.35;;;20.40;99.90;;;;;;5053855;28;20028;-74
2022/08/11 08:21:39;;;;;;;5.50;3.25;;;20.40;99.90;;;;;;5053579;28;20115;-71
2022/08/11 08:24:06;;;;;;;8.10;3.40;;;20.50;99.90;;;;;;5052304;28;20032;-79
2022/08/11 08:32:04;;;;;;;6.38;3.47;;;20.50;99.90;;;;;;5045033;28;20059;-79
2022/08/11 08:34:30;;;;;;;5.18;3.17;;;20.60;99.90;;;;;;5049244;28;20025;-79
2022/08/11 08:36:56;;;;;;;8.10;3.20;;;20.60;99.90;;;;;;5049546;28;20115;-79
2022/08/11 08:39:22;;;;;;;3.75;3.00;;;20.80;99.90;;;;;;5049547;28;20522;-79
2022/08/11 08:41:56;;;;;;;10.40;3.40;;;20.90;99.90;;;;;;5048504;28;20048;-79
2022/08/11 08:44:24;;;;;;;8.85;3.53;;;21.00;99.90;;;;;;5049477;28;20485;-79
2022/08/11 08:46:57;;;;;;;8.75;3.33;;;21.10;99.90;;;;;;5048808;28;20044;-79
2022/08/11 08:49:32;;;;;;;8.52;3.45;;;21.20;99.90;;;;;;5049630;28;20400;-80
2022/08/11 08:52:02;;;;;;;6.57;2.92;;;21.30;99.90;;;;;;5047968;28;20025;-78
2022/08/11 08:54:36;;;;;;;5.28;3.15;;;21.30;99.90;;;;;;5048974;28;20592;-75
2022/08/11 08:57:04;;;;;;;5.50;2.90;;;21.50;99.90;;;;;;5046406;28;20449;-75
2022/08/11 08:59:32;;;;;;;5.57;3.17;;;21.60;99.90;;;;;;5049952;28;20211;-75
2022/08/11 09:02:04;;;;;;;4.80;2.78;;;21.70;99.90;;;;;;5049768;28;20025;-75
2022/08/11 09:04:31;;;;;;;4.75;3.00;;;21.80;99.90;;;;;;5049710;28;20032;-75
2022/08/11 09:06:59;;;;;;;4.93;2.80;;;21.80;99.90;;;;;;5049734;28;20814;-75
2022/08/11 09:09:26;;;;;;;7.00;3.17;;;21.90;99.90;;;;;;5049912;28;20436;-75
2022/08/11 09:11:52;;;;;;;4.25;2.78;;;22.00;99.90;;;;;;5047751;28;20021;-76
2022/08/11 09:17:26;;;;;;;8.30;3.17;;;22.20;99.90;;;;;;5047983;28;20385;-76
2022/08/11 09:19:57;;;;;;;5.95;3.08;;;22.40;99.90;;;;;;5050609;28;20109;-76
2022/08/11 09:27:55;;;;;;;5.20;2.78;;;22.80;99.90;;;;;;5053119;28;20023;-74
2022/08/11 09:30:24;;;;;;;8.55;3.30;;;22.90;99.90;;;;;;5051166;28;20029;-70
2022/08/11 09:32:56;;;;;;;7.32;2.95;;;23.00;99.90;;;;;;5052978;28;20021;-71
2022/08/11 09:35:35;;;;;;;4.90;3.00;;;23.20;99.90;;;;;;5052343;28;20037;-71
2022/08/11 09:40:47;;;;;;;4.53;2.70;;;23.70;99.90;;;;;;5055189;28;20098;-74
2022/08/11 09:46:00;;;;;;;10.23;3.47;;;23.90;99.90;;;;;;5056788;28;20079;-74
2022/08/11 09:48:29;;;;;;;6.68;2.60;;;24.10;99.90;;;;;;5056802;28;20033;-74
2022/08/11 09:50:59;;;;;;;6.40;2.70;;;24.40;99.90;;;;;;5056749;28;20079;-74
2022/08/11 09:53:29;;;;;;;6.10;2.67;;;24.60;99.90;;;;;;5056335;28;20079;-74
2022/08/11 09:55:55;;;;;;;6.40;2.70;;;24.60;99.90;;;;;;5055237;28;20481;-80
2022/08/11 09:58:23;;;;;;;7.57;2.78;;;24.90;99.90;;;;;;5053044;28;20044;-79
2022/08/11 10:00:50;;;;;;;4.18;2.22;;;25.00;99.90;;;;;;5053905;28;20024;-80
2022/08/11 10:03:27;;;;;;;9.85;2.80;;;25.20;99.90;;;;;;5052670;28;20029;-79
2022/08/11 10:08:43;;;;;;;10.10;2.63;;;25.40;99.90;;;;;;5039864;28;20113;-71
2022/08/11 10:11:11;;;;;;;4.53;2.50;;;25.40;99.90;;;;;;5056492;28;20112;-75
2022/08/11 10:16:28;;;;;;;5.15;2.40;;;25.60;99.90;;;;;;5056525;28;20436;-75
2022/08/11 10:18:54;;;;;;;5.85;2.50;;;25.60;99.90;;;;;;5055976;28;20029;-75
2022/08/11 10:21:38;;;;;;;4.30;2.38;;;25.80;99.90;;;;;;5055882;28;20017;-75
2022/08/11 10:26:57;;;;;;;5.25;2.28;;;25.70;99.10;;;;;;5053851;28;20087;-80
2022/08/11 10:35:14;;;;;;;8.88;2.40;;;26.00;98.00;;;;;;5042963;28;20044;-80
2022/08/11 10:37:43;;;;;;;6.10;2.42;;;25.90;98.10;;;;;;5034262;28;20052;-80
2022/08/11 10:40:14;;;;;;;2.72;1.85;;;26.00;98.40;;;;;;5052062;28;20327;-79
2022/08/11 10:48:10;;;;;;;21.98;3.10;;;26.50;96.10;;;;;;5052106;28;20377;-79
2022/08/11 10:58:55;;;;;;;4.53;2.20;;;26.90;94.70;;;;;;5051958;28;20101;-79
2022/08/11 11:01:31;;;;;;;7.15;2.50;;;27.10;93.70;;;;;;5052016;28;20029;-79
2022/08/11 11:04:00;;;;;;;5.28;2.05;;;27.10;92.70;;;;;;5051382;28;20185;-82
2022/08/11 11:06:51;;;;;;;5.13;2.10;;;27.00;93.30;;;;;;5051006;28;20033;-82
2022/08/11 11:09:18;;;;;;;7.38;2.33;;;27.10;93.60;;;;;;5040109;28;20036;-82
2022/08/11 11:20:18;;;;;;;3.85;1.95;;;27.30;92.00;;;;;;5051666;28;20088;-82
2022/08/11 11:22:51;;;;;;;4.35;2.10;;;27.30;92.40;;;;;;5051569;28;20048;-81
2022/08/11 11:25:21;;;;;;;6.57;2.10;;;27.30;91.50;;;;;;5051465;28;20059;-82
2022/08/11 11:28:05;;;;;;;3.33;1.90;;;27.40;91.50;;;;;;5049908;28;20394;-83
2022/08/11 11:30:40;;;;;;;6.45;1.90;;;27.50;90.70;;;;;;5051406;28;20028;-82
2022/08/11 11:33:15;;;;;;;4.45;2.00;;;27.50;92.40;;;;;;5046281;28;20095;-82
2022/08/11 11:35:58;;;;;;;4.88;2.00;;;27.70;91.30;;;;;;5045446;28;20033;-82
2022/08/11 11:38:24;;;;;;;5.68;2.25;;;27.80;91.50;;;;;;5050114;28;20377;-82
2022/08/11 11:41:23;;;;;;;3.88;2.08;;;28.10;90.50;;;;;;5051327;28;20033;-82
2022/08/11 11:43:36;;;;;;;9.00;2.20;;;28.00;91.10;;;;;;5050006;28;20037;-82
2022/08/11 11:46:05;;;;;;;3.60;2.25;;;28.20;90.00;;;;;;5049611;28;20025;-83
2022/08/11 11:48:32;;;;;;;4.53;2.20;;;28.30;88.30;;;;;;5050118;28;20100;-82
2022/08/11 11:50:59;;;;;;;3.28;1.85;;;28.30;89.50;;;;;;5050515;28;20339;-82
2022/08/11 11:53:25;;;;;;;5.47;1.98;;;28.70;90.20;;;;;;5049487;28;20082;-81
2022/08/11 11:55:51;;;;;;;4.32;1.85;;;28.80;88.40;;;;;;5031568;28;20060;-82
2022/08/11 12:01:24;;;;;;;5.00;1.98;;;28.80;85.70;;;;;;5043689;28;20031;-82
2022/08/11 12:03:51;;;;;;;3.05;2.33;;;28.90;86.10;;;;;;5049680;28;20055;-82
2022/08/11 12:06:19;;;;;;;11.23;2.20;;;29.10;88.20;;;;;;5050415;28;20478;-83
2022/08/11 12:08:48;;;;;;;5.97;2.03;;;29.50;85.10;;;;;;5049849;28;20029;-82
2022/08/11 12:14:05;;;;;;;6.03;2.20;;;29.70;85.30;;;;;;5049639;28;20222;-82
2022/08/11 12:16:35;;;;;;;6.85;2.10;;;29.90;86.20;;;;;;5049663;28;20021;-81
2022/08/11 12:19:02;;;;;;;6.72;2.20;;;30.00;82.60;;;;;;5050152;28;20029;-82
2022/08/11 12:21:29;;;;;;;4.78;2.05;;;30.00;81.40;;;;;;5049420;28;20504;-82
2022/08/11 12:29:20;;;;;;;9.55;2.00;;;30.10;78.90;;;;;;5049298;28;20027;-82
2022/08/11 12:31:47;;;;;;;4.43;1.88;;;30.10;78.10;;;;;;5050279;28;20033;-82
2022/08/11 12:34:14;;;;;;;4.45;1.98;;;30.10;78.30;;;;;;5050058;28;20054;-82
2022/08/11 12:36:45;;;;;;;9.18;1.80;;;30.10;77.90;;;;;;5050044;28;20111;-82
2022/08/11 12:39:17;;;;;;;6.40;2.05;;;30.30;78.30;;;;;;5049838;28;20057;-82
2022/08/11 12:47:15;;;;;;;;;;;30.20;75.70;;;;;;5050005;28;20059;-82
2022/08/11 12:52:36;;;;;;;5.45;2.30;;;29.60;79.20;;;;;;5049545;28;20043;-82
2022/08/11 12:58:14;;;;;;;7.50;2.05;;;29.80;78.00;;;;;;5048761;28;20490;-83
2022/08/11 12:58:16;;;;;;;3.55;1.70;;;29.80;77.20;;;;;;5049350;28;20466;-82
2022/08/11 13:06:17;;;;;;;7.53;1.95;;;30.40;74.70;;;;;;5047145;28;20068;-83
2022/08/11 13:08:45;;;;;;;2.53;1.90;;;30.80;74.50;;;;;;5031241;28;20021;-83
2022/08/11 13:13:57;;;;;;;4.80;2.10;;;30.80;73.60;;;;;;5045934;28;20116;-83
2022/08/11 13:16:29;;;;;;;5.75;1.80;;;30.40;74.20;;;;;;5053584;28;20029;-82
2022/08/11 13:18:59;;;;;;;4.82;2.15;;;30.30;75.20;;;;;;5048295;28;20051;-82
2022/08/11 13:21:26;;;;;;;3.78;1.70;;;30.30;73.60;;;;;;5054331;28;20029;-83
2022/08/11 13:23:55;;;;;;;3.45;1.90;;;30.20;75.70;;;;;;5053340;28;20032;-83
2022/08/11 13:26:23;;;;;;;5.32;1.70;;;30.20;74.20;;;;;;5041306;28;20021;-83
2022/08/11 13:28:50;;;;;;;3.22;1.60;;;30.50;74.20;;;;;;5052821;28;20474;-82
2022/08/11 13:31:16;;;;;;;5.97;1.90;;;30.40;74.50;;;;;;5053654;28;20112;-83
2022/08/11 13:33:45;;;;;;;4.55;2.40;;;30.30;75.10;;;;;;5053461;28;20496;-82
2022/08/11 13:36:11;;;;;;;4.65;1.70;;;30.20;73.60;;;;;;5053129;28;20027;-82
2022/08/11 13:38:40;;;;;;;3.97;1.95;;;30.10;74.20;;;;;;5052466;28;20032;-83
2022/08/11 13:41:36;;;;;;;7.07;1.98;;;30.00;74.00;;;;;;5053115;28;20094;-82
2022/08/11 13:43:53;;;;;;;4.75;2.08;;;29.90;74.60;;;;;;5053036;28;20039;-83
2022/08/11 13:46:23;;;;;;;8.48;2.30;;;29.70;75.00;;;;;;5053074;28;20132;-83
2022/08/11 13:48:50;;;;;;;3.60;1.60;;;29.60;74.60;;;;;;5034942;28;20025;-83
2022/08/11 13:51:35;;;;;;;6.20;1.77;;;29.60;73.50;;;;;;5052565;28;20039;-82
2022/08/11 13:54:18;;;;;;;3.47;1.80;;;29.60;74.30;;;;;;5052580;28;20106;-82
2022/08/11 13:56:47;;;;;;;8.05;2.40;;;29.30;73.50;;;;;;5052637;28;20053;-83
2022/08/11 13:59:14;;;;;;;5.45;1.95;;;29.40;74.60;;;;;;5052318;28;20235;-82
2022/08/11 14:01:55;;;;;;;3.28;1.80;;;29.50;72.90;;;;;;5053159;28;20180;-82
2022/08/11 14:04:55;;;;;;;4.80;1.77;;;29.20;74.50;;;;;;5034735;28;20035;-83
2022/08/11 14:07:25;;;;;;;2.67;2.10;;;28.80;75.50;;;;;;5041442;28;20056;-82
2022/08/11 14:09:58;;;;;;;4.05;1.80;;;28.50;73.80;;;;;;5052717;28;20017;-83
2022/08/11 14:15:23;;;;;;;3.75;1.83;;;28.20;76.50;;;;;;5041882;28;20024;-82
2022/08/11 14:18:04;;;;;;;3.78;1.85;;;28.10;75.30;;;;;;5053140;28;20767;-82
2022/08/11 14:22:05;;;;;;;4.70;2.00;;;28.10;76.10;;;;;;5036050;28;20064;-82
2022/08/11 14:23:46;;;;;;;4.03;2.25;;;28.00;76.60;;;;;;5053480;28;20083;-82
2022/08/11 14:26:27;;;;;;;4.43;1.75;;;27.80;76.00;;;;;;5048878;28;20033;-82
2022/08/11 14:28:59;;;;;;;4.38;1.67;;;27.50;76.00;;;;;;5053784;28;20021;-83
2022/08/11 14:31:27;;;;;;;3.75;1.95;;;27.30;76.10;;;;;;5053701;28;20751;-82
2022/08/11 14:33:55;;;;;;;4.72;1.88;;;27.20;77.60;;;;;;5053652;28;20110;-82
2022/08/11 14:36:23;;;;;;;6.35;1.92;;;27.20;77.70;;;;;;5034533;28;20027;-74
2022/08/11 14:38:49;;;;;;;5.28;1.95;;;27.10;77.60;;;;;;5036066;28;20472;-77
2022/08/11 14:47:03;;;;;;;6.07;2.03;;;27.00;77.40;;;;;;5040970;28;20059;-76
2022/08/11 14:49:30;;;;;;;3.45;1.73;;;26.90;78.70;;;;;;5053182;28;20025;-77
2022/08/11 14:51:57;;;;;;;5.72;2.00;;;26.80;76.70;;;;;;5054110;28;20507;-76
2022/08/11 14:57:14;;;;;;;7.10;2.17;;;26.70;76.60;;;;;;5052432;28;20432;-81
2022/08/11 14:59:41;;;;;;;6.55;1.80;;;26.50;77.80;;;;;;5052181;28;20121;-81
2022/08/11 15:04:51;;;;;;;5.63;1.90;;;26.40;78.20;;;;;;5052288;28;20512;-80
2022/08/11 15:07:24;;;;;;;7.13;1.92;;;26.30;78.00;;;;;;5051981;28;20462;-80
2022/08/11 15:09:49;;;;;;;4.50;2.00;;;26.30;78.50;;;;;;5051662;28;20096;-80
2022/08/11 15:12:17;;;;;;;8.05;1.90;;;26.30;78.90;;;;;;5045250;28;20116;-80
2022/08/11 15:17:32;;;;;;;2.25;1.63;;;26.20;78.10;;;;;;5051945;28;20432;-81
2022/08/11 15:25:33;;;;;;;4.68;2.00;;;26.40;77.50;;;;;;5051544;28;20081;-82
2022/08/11 15:39:14;;;;;;;3.65;1.77;;;26.20;76.90;;;;;;5053944;28;20059;-82
2022/08/11 15:47:40;;;;;;;4.88;1.88;;;26.10;76.80;;;;;;5054114;28;20083;-82
2022/08/11 15:50:08;;;;;;;3.92;1.90;;;26.20;76.40;;;;;;5053972;28;20021;-81
2022/08/11 15:52:38;;;;;;;4.15;1.63;;;26.10;76.30;;;;;;5026931;28;20021;-81
2022/08/11 15:55:06;;;;;;;4.80;1.80;;;26.10;76.00;;;;;;5049515;28;20021;-81
2022/08/11 16:05:52;;;;;;;2.30;1.60;;;26.00;75.90;;;;;;5040192;28;20032;-81
2022/08/11 16:08:23;;;;;;;5.20;1.67;;;26.00;74.60;;;;;;5051778;28;20025;-81
2022/08/11 16:10:52;;;;;;;2.47;1.70;;;26.00;74.50;;;;;;5051686;28;20071;-80
2022/08/11 16:16:14;;;;;;;4.90;1.88;;;25.80;74.00;;;;;;5050971;28;20441;-81
2022/08/11 16:18:55;;;;;;;2.55;1.65;;;25.70;73.40;;;;;;5051373;28;20469;-81
2022/08/11 16:21:29;;;;;;;3.47;1.65;;;25.60;74.30;;;;;;5051615;28;20112;-81
2022/08/11 16:23:57;;;;;;;2.33;1.70;;;25.50;74.50;;;;;;5052601;28;20028;-80
2022/08/11 16:26:24;;;;;;;3.85;2.10;;;25.40;75.10;;;;;;5052225;28;20028;-81
2022/08/11 16:28:52;;;;;;;5.20;1.83;;;25.40;76.30;;;;;;5052518;28;20029;-80
2022/08/11 16:31:19;;;;;;;6.32;1.55;;;25.30;76.50;;;;;;5051476;28;20017;-81
2022/08/11 16:33:47;;;;;;;5.50;2.10;;;25.10;75.50;;;;;;5051296;28;20029;-80
2022/08/11 16:39:00;;;;;;;3.58;1.83;;;25.00;77.10;;;;;;5052856;28;20503;-80
2022/08/11 16:47:07;;;;;;;21.10;2.45;;;24.70;79.10;;;;;;5051333;28;20075;-81
2022/08/11 16:49:41;;;;;;;3.03;1.60;;;24.70;79.80;;;;;;5052511;28;20025;-73
2022/08/11 16:52:10;;;;;;;5.88;1.90;;;24.60;79.70;;;;;;5053035;28;20085;-74
2022/08/11 16:54:38;;;;;;;2.78;1.80;;;24.60;80.80;;;;;;5053465;28;20033;-75
2022/08/11 16:59:56;;;;;;;3.53;1.73;;;24.40;81.20;;;;;;5053246;28;20457;-74
2022/08/11 17:13:43;;;;;;;5.40;1.85;;;24.10;81.50;;;;;;5053411;28;20029;-74
2022/08/11 17:16:11;;;;;;;7.00;1.60;;;24.00;81.00;;;;;;5053105;28;20021;-74
2022/08/11 17:18:56;;;;;;;3.50;1.70;;;24.00;80.90;;;;;;5053221;28;20382;-74
2022/08/11 17:21:35;;;;;;;6.75;1.65;;;24.10;81.90;;;;;;5053310;28;20047;-73
2022/08/11 17:24:07;;;;;;;6.15;1.90;;;24.00;80.70;;;;;;5053440;28;20086;-74
2022/08/11 17:26:57;;;;;;;4.25;1.77;;;24.00;80.90;;;;;;5050690;28;20037;-76
2022/08/11 17:29:34;;;;;;;5.03;1.88;;;23.90;80.70;;;;;;5049825;28;20071;-76
2022/08/11 17:37:54;;;;;;;2.53;2.00;;;23.70;81.10;;;;;;5049127;28;20035;-77
2022/08/11 17:40:23;;;;;;;4.72;1.90;;;23.60;80.90;;;;;;5049632;28;20029;-76
2022/08/11 17:48:25;;;;;;;5.88;2.80;;;23.50;81.80;;;;;;5050102;28;20492;-76
2022/08/11 17:51:01;;;;;;;5.70;2.38;;;23.40;81.30;;;;;;5049738;28;20029;-76
2022/08/11 18:01:53;;;;;;;4.88;1.88;;;23.20;82.10;;;;;;5051752;28;20059;-76
2022/08/11 18:04:21;;;;;;;4.97;1.70;;;23.10;82.10;;;;;;5053478;28;20135;-74
2022/08/11 18:06:47;;;;;;;4.00;1.83;;;23.10;83.30;;;;;;5038479;28;20365;-73
